createdAt,value
2019-04-29T00:01:01.275Z,5.70
2019-04-29T00:06:30.747Z,5.70
2019-04-29T00:12:00.213Z,5.80
2019-04-29T00:17:31.320Z,5.80
2019-04-29T00:23:00.770Z,5.80
2019-04-29T00:28:30.198Z,5.80
2019-04-29T00:33:59.544Z,5.70
2019-04-29T00:39:30.650Z,5.70
2019-04-29T00:45:00.251Z,5.60
2019-04-29T00:50:29.785Z,5.60
2019-04-29T00:56:00.824Z,5.50
2019-04-29T01:01:30.401Z,5.50
2019-04-29T01:06:59.865Z,5.50
2019-04-29T01:12:29.170Z,5.60
2019-04-29T01:17:58.709Z,5.60
2019-04-29T01:23:28.196Z,5.60
2019-04-29T01:29:05.180Z,5.60
2019-04-29T01:34:36.171Z,5.60
2019-04-29T01:40:08.289Z,5.70
2019-04-29T01:45:38.262Z,5.60
2019-04-29T01:51:07.712Z,5.70
2019-04-29T01:56:37.169Z,5.70
2019-04-29T02:02:06.755Z,5.70
2019-04-29T02:07:36.163Z,5.70
2019-04-29T02:13:05.632Z,5.70
2019-04-29T02:18:35.024Z,5.70
2019-04-29T02:24:12.030Z,5.70
2019-04-29T02:29:41.451Z,5.80
2019-04-29T02:35:11.132Z,5.80
2019-04-29T02:40:47.741Z,5.80
2019-04-29T02:46:17.140Z,5.80
2019-04-29T02:51:48.163Z,5.80
2019-04-29T02:57:21.968Z,5.80
2019-04-29T03:02:58.943Z,5.80
2019-04-29T03:08:28.314Z,5.80
2019-04-29T03:13:57.645Z,5.80
2019-04-29T03:19:28.794Z,5.80
2019-04-29T03:24:58.115Z,5.80
2019-04-29T03:30:27.967Z,5.70
2019-04-29T03:35:57.733Z,5.70
2019-04-29T03:41:27.240Z,5.60
2019-04-29T03:46:56.697Z,5.50
2019-04-29T03:52:26.034Z,5.40
2019-04-29T03:57:56.153Z,5.30
2019-04-29T04:03:27.284Z,5.20
2019-04-29T04:09:06.229Z,5.10
2019-04-29T04:14:43.928Z,5.00
2019-04-29T04:20:14.241Z,5.00
2019-04-29T04:25:43.848Z,4.90
2019-04-29T04:31:13.151Z,4.90
2019-04-29T04:36:42.505Z,4.90
2019-04-29T04:42:18.103Z,4.90
2019-04-29T04:47:47.532Z,4.90
2019-04-29T04:53:17.129Z,5.00
2019-04-29T04:58:46.489Z,5.00
2019-04-29T05:04:15.794Z,5.10
2019-04-29T05:09:46.259Z,5.10
2019-04-29T05:15:16.697Z,5.30
2019-04-29T05:20:46.075Z,5.40
2019-04-29T05:26:15.540Z,5.50
2019-04-29T05:31:44.973Z,5.70
2019-04-29T05:37:21.819Z,5.70
2019-04-29T05:42:52.489Z,5.90
2019-04-29T05:48:22.222Z,6.00
2019-04-29T05:53:55.189Z,6.10
2019-04-29T05:59:24.361Z,6.30
2019-04-29T06:04:54.063Z,6.30
2019-04-29T06:10:24.737Z,6.40
2019-04-29T06:15:54.215Z,6.60
2019-04-29T06:21:23.543Z,6.70
2019-04-29T06:26:52.896Z,6.80
2019-04-29T06:32:24.973Z,6.90
2019-04-29T06:37:53.282Z,6.90
2019-04-29T06:43:24.704Z,6.90
2019-04-29T06:48:53.795Z,7.00
2019-04-29T06:54:23.115Z,7.10
2019-04-29T06:59:54.785Z,7.20
2019-04-29T07:05:23.466Z,7.30
2019-04-29T07:10:55.841Z,7.40
2019-04-29T07:16:26.831Z,7.30
2019-04-29T07:21:56.536Z,7.30
2019-04-29T07:27:25.929Z,7.30
2019-04-29T07:32:55.332Z,7.40
2019-04-29T07:38:24.667Z,7.40
2019-04-29T07:43:54.071Z,7.30
2019-04-29T07:49:23.477Z,7.20
2019-04-29T07:54:56.071Z,7.10
2019-04-29T08:00:33.254Z,7.10
2019-04-29T08:06:02.751Z,7.20
2019-04-29T08:11:32.299Z,7.40
2019-04-29T08:17:01.695Z,7.40
2019-04-29T08:22:31.016Z,7.40
2019-04-29T08:28:00.335Z,7.60
2019-04-29T08:33:29.718Z,7.70
2019-04-29T08:39:08.305Z,8.10
2019-04-29T08:44:31.801Z,8.40
2019-04-29T08:50:01.301Z,8.60
2019-04-29T08:55:33.968Z,8.60
2019-04-29T09:01:01.773Z,8.90
2019-04-29T09:06:32.604Z,9.10
2019-04-29T09:12:02.117Z,9.20
2019-04-29T09:17:31.445Z,9.00
2019-04-29T09:23:02.419Z,9.20
2019-04-29T09:28:31.808Z,9.60
2019-04-29T09:34:06.734Z,10.00
2019-04-29T09:39:43.106Z,10.20
2019-04-29T09:45:08.457Z,10.30
2019-04-29T09:50:39.064Z,10.20
2019-04-29T09:56:09.143Z,9.90
2019-04-29T10:01:40.150Z,9.70
2019-04-29T10:07:11.343Z,9.60
2019-04-29T10:12:40.733Z,9.60
2019-04-29T10:18:11.806Z,9.70
2019-04-29T10:23:41.263Z,9.90
2019-04-29T10:29:18.598Z,10.20
2019-04-29T10:34:46.193Z,10.30
2019-04-29T10:40:22.124Z,10.40
2019-04-29T10:46:09.330Z,10.50
2019-04-29T10:51:40.859Z,10.60
2019-04-29T10:57:14.695Z,10.40
2019-04-29T11:02:44.771Z,10.10
2019-04-29T11:08:15.535Z,9.70
2019-04-29T11:13:49.847Z,9.40
2019-04-29T11:19:16.132Z,9.20
2019-04-29T11:24:53.033Z,9.10
2019-04-29T11:30:24.056Z,8.80
2019-04-29T11:35:55.042Z,8.60
2019-04-29T11:41:27.600Z,8.40
2019-04-29T11:46:57.424Z,8.50
2019-04-29T11:52:28.097Z,8.70
2019-04-29T11:57:59.713Z,9.10
2019-04-29T12:03:33.827Z,9.30
2019-04-29T12:09:06.604Z,9.80
2019-04-29T12:14:49.101Z,10.00
2019-04-29T12:20:26.063Z,10.00
2019-04-29T12:25:58.729Z,10.10
2019-04-29T12:31:31.114Z,10.10
2019-04-29T12:37:00.731Z,10.20
2019-04-29T12:42:44.041Z,10.30
2019-04-29T12:48:24.538Z,10.50
2019-04-29T12:53:44.909Z,10.50
2019-04-29T12:59:14.352Z,10.40
2019-04-29T13:04:49.879Z,10.10
2019-04-29T13:10:21.241Z,9.90
2019-04-29T13:15:55.241Z,9.90
2019-04-29T13:21:24.726Z,9.90
2019-04-29T13:26:54.211Z,9.70
2019-04-29T13:32:25.414Z,9.40
2019-04-29T13:37:54.895Z,9.20
2019-04-29T13:43:25.901Z,9.10
2019-04-29T13:49:06.373Z,9.20
2019-04-29T13:54:28.173Z,9.20
2019-04-29T14:00:01.566Z,9.00
2019-04-29T14:05:36.715Z,8.60
2019-04-29T14:11:03.939Z,8.50
2019-04-29T14:16:33.703Z,8.50
2019-04-29T14:22:03.063Z,8.60
2019-04-29T14:27:32.390Z,8.80
2019-04-29T14:33:03.169Z,8.90
2019-04-29T14:38:35.966Z,8.90
2019-04-29T14:44:05.710Z,9.00
2019-04-29T14:49:40.895Z,9.10
2019-04-29T14:55:14.781Z,9.10
2019-04-29T15:00:45.812Z,9.00
2019-04-29T15:06:15.178Z,8.90
2019-04-29T15:11:47.462Z,8.70
2019-04-29T15:17:27.703Z,8.70
2019-04-29T15:22:57.121Z,8.60
2019-04-29T15:28:26.442Z,8.50
2019-04-29T15:33:55.775Z,8.50
2019-04-29T15:39:25.970Z,8.40
2019-04-29T15:44:56.119Z,8.50
2019-04-29T15:50:26.198Z,8.40
2019-04-29T15:56:06.712Z,8.40
2019-04-29T16:01:30.352Z,8.40
2019-04-29T16:07:00.992Z,8.30
2019-04-29T16:12:45.277Z,8.20
2019-04-29T16:18:14.738Z,8.10
2019-04-29T16:23:43.448Z,8.00
2019-04-29T16:29:15.422Z,7.90
2019-04-29T16:34:46.919Z,7.80
2019-04-29T16:40:15.579Z,7.80
2019-04-29T16:45:51.740Z,7.70
2019-04-29T16:51:17.797Z,7.60
2019-04-29T16:56:47.211Z,7.50
2019-04-29T17:02:19.615Z,7.60
2019-04-29T17:07:48.061Z,7.60
2019-04-29T17:13:23.395Z,7.60
2019-04-29T17:18:48.713Z,7.60
2019-04-29T17:24:18.423Z,7.60
2019-04-29T17:30:07.798Z,7.50
2019-04-29T17:35:38.311Z,7.50
2019-04-29T17:41:09.714Z,7.50
2019-04-29T17:46:43.544Z,7.50
2019-04-29T17:52:15.865Z,7.40
2019-04-29T17:58:03.015Z,7.30
2019-04-29T18:03:52.541Z,7.30
2019-04-29T18:09:36.615Z,7.30
2019-04-29T18:15:10.762Z,7.20
2019-04-29T18:20:42.685Z,7.20
2019-04-29T18:26:28.552Z,7.10
2019-04-29T18:32:00.554Z,7.10
2019-04-29T18:37:30.379Z,7.10
2019-04-29T18:43:00.645Z,7.10
2019-04-29T18:48:30.056Z,7.10
2019-04-29T18:54:01.428Z,7.10
2019-04-29T18:59:33.232Z,7.10
2019-04-29T19:05:20.591Z,7.10
2019-04-29T19:10:52.171Z,7.00
2019-04-29T19:16:22.042Z,6.90
2019-04-29T19:21:52.456Z,6.90
2019-04-29T19:27:21.999Z,6.80
2019-04-29T19:32:55.608Z,6.80
2019-04-29T19:38:22.486Z,6.80
2019-04-29T19:43:55.144Z,6.80
2019-04-29T19:49:22.877Z,6.80
2019-04-29T19:54:57.417Z,6.80
2019-04-29T20:00:29.445Z,6.80
2019-04-29T20:06:08.427Z,6.80
2019-04-29T20:11:33.548Z,6.80
2019-04-29T20:17:20.872Z,6.70
2019-04-29T20:22:51.345Z,6.70
2019-04-29T20:28:21.625Z,6.70
2019-04-29T20:33:51.345Z,6.70
2019-04-29T20:39:23.558Z,6.60
2019-04-29T20:44:52.022Z,6.60
2019-04-29T20:50:21.734Z,6.60
2019-04-29T20:55:51.436Z,6.50
2019-04-29T21:01:22.680Z,6.50
2019-04-29T21:07:01.804Z,6.40
2019-04-29T21:12:36.731Z,6.40
2019-04-29T21:18:02.095Z,6.40
2019-04-29T21:23:42.543Z,6.40
2019-04-29T21:29:18.106Z,6.40
2019-04-29T21:34:47.610Z,6.40
2019-04-29T21:40:20.672Z,6.30
2019-04-29T21:45:50.126Z,6.30
2019-04-29T21:51:19.520Z,6.40
2019-04-29T21:56:48.991Z,6.40
2019-04-29T22:02:19.889Z,6.40
2019-04-29T22:07:49.365Z,6.30
2019-04-29T22:13:18.812Z,6.40
2019-04-29T22:18:51.930Z,6.40
2019-04-29T22:24:21.840Z,6.40
2019-04-29T22:29:50.612Z,6.40
2019-04-29T22:35:20.122Z,6.30
2019-04-29T22:40:50.880Z,6.20
2019-04-29T22:46:20.467Z,6.20
2019-04-29T22:51:53.593Z,6.10
2019-04-29T22:57:22.905Z,6.10
2019-04-29T23:02:51.990Z,6.00
2019-04-29T23:08:21.334Z,6.00
2019-04-29T23:13:50.742Z,6.00
2019-04-29T23:19:20.195Z,6.00
2019-04-29T23:25:00.530Z,6.00
2019-04-29T23:30:29.975Z,5.90
2019-04-29T23:35:59.366Z,5.90
2019-04-29T23:41:33.117Z,6.00
2019-04-29T23:46:59.800Z,6.00
2019-04-29T23:52:29.207Z,5.90
2019-04-29T23:58:16.309Z,5.90
